sensor_id;sensor_type;location;lat;lon;timestamp;pressure;altitude;pressure_sealevel;temperature;humidity
19259;BME280;9763;48.780;9.212;2023-04-21T00:02:47;98036.69;;;9.82;57.23
19259;BME280;9763;48.780;9.212;2023-04-21T00:06:13;98035.84;;;9.81;57.46
19259;BME280;9763;48.780;9.212;2023-04-21T00:09:45;98035.84;;;9.81;57.36
19259;BME280;9763;48.780;9.212;2023-04-21T00:13:10;98041.91;;;9.82;57.44
19259;BME280;9763;48.780;9.212;2023-04-21T00:16:34;98040.25;;;9.81;57.02
19259;BME280;9763;48.780;9.212;2023-04-21T00:19:58;98036.78;;;9.80;57.22
19259;BME280;9763;48.780;9.212;2023-04-21T00:23:22;98040.25;;;9.81;57.51
19259;BME280;9763;48.780;9.212;2023-04-21T00:26:47;98033.34;;;9.80;57.30
19259;BME280;9763;48.780;9.212;2023-04-21T00:30:12;98028.16;;;9.80;57.35
19259;BME280;9763;48.780;9.212;2023-04-21T00:33:36;98027.22;;;9.81;57.34
19259;BME280;9763;48.780;9.212;2023-04-21T00:37:00;98027.94;;;9.83;57.40
19259;BME280;9763;48.780;9.212;2023-04-21T00:40:24;98020.03;;;9.84;57.34
19259;BME280;9763;48.780;9.212;2023-04-21T00:44:03;98018.16;;;9.86;57.74
19259;BME280;9763;48.780;9.212;2023-04-21T00:47:27;98011.16;;;9.87;57.74
19259;BME280;9763;48.780;9.212;2023-04-21T00:50:51;98021.38;;;9.90;57.75
19259;BME280;9763;48.780;9.212;2023-04-21T00:54:16;98010.00;;;9.91;57.53
19259;BME280;9763;48.780;9.212;2023-04-21T00:57:41;98000.41;;;9.91;57.45
19259;BME280;9763;48.780;9.212;2023-04-21T01:01:07;98008.22;;;9.91;57.48
19259;BME280;9763;48.780;9.212;2023-04-21T01:04:31;98009.28;;;9.89;57.57
19259;BME280;9763;48.780;9.212;2023-04-21T01:07:59;98002.50;;;9.86;57.57
19259;BME280;9763;48.780;9.212;2023-04-21T01:11:23;98009.59;;;9.84;57.92
19259;BME280;9763;48.780;9.212;2023-04-21T01:14:47;98005.63;;;9.79;57.75
19259;BME280;9763;48.780;9.212;2023-04-21T01:18:13;97994.69;;;9.73;58.08
19259;BME280;9763;48.780;9.212;2023-04-21T01:21:40;97996.78;;;9.68;57.95
19259;BME280;9763;48.780;9.212;2023-04-21T01:25:05;97989.38;;;9.62;58.04
19259;BME280;9763;48.780;9.212;2023-04-21T01:28:31;97998.34;;;9.58;57.86
19259;BME280;9763;48.780;9.212;2023-04-21T01:31:54;97988.25;;;9.54;58.02
19259;BME280;9763;48.780;9.212;2023-04-21T01:35:19;97995.53;;;9.49;58.14
19259;BME280;9763;48.780;9.212;2023-04-21T01:38:44;97998.41;;;9.44;58.06
19259;BME280;9763;48.780;9.212;2023-04-21T01:42:09;97995.31;;;9.39;58.00
19259;BME280;9763;48.780;9.212;2023-04-21T01:45:47;97993.75;;;9.36;58.00
19259;BME280;9763;48.780;9.212;2023-04-21T01:49:11;97991.53;;;9.30;57.99
19259;BME280;9763;48.780;9.212;2023-04-21T01:52:35;98004.03;;;9.25;58.10
19259;BME280;9763;48.780;9.212;2023-04-21T01:56:00;98007.78;;;9.21;58.29
19259;BME280;9763;48.780;9.212;2023-04-21T01:59:25;98006.31;;;9.17;58.28
19259;BME280;9763;48.780;9.212;2023-04-21T02:02:49;98012.56;;;9.15;58.21
19259;BME280;9763;48.780;9.212;2023-04-21T02:06:13;98007.63;;;9.10;58.31
19259;BME280;9763;48.780;9.212;2023-04-21T02:09:39;97975.72;;;8.94;58.65
19259;BME280;9763;48.780;9.212;2023-04-21T02:13:04;98002.09;;;9.02;58.51
19259;BME280;9763;48.780;9.212;2023-04-21T02:16:28;97996.44;;;8.95;58.28
19259;BME280;9763;48.780;9.212;2023-04-21T02:19:52;97997.50;;;8.93;58.61
19259;BME280;9763;48.780;9.212;2023-04-21T02:23:16;97995.28;;;8.87;58.54
19259;BME280;9763;48.780;9.212;2023-04-21T02:26:40;98000.69;;;8.84;58.37
19259;BME280;9763;48.780;9.212;2023-04-21T02:30:06;97999.94;;;8.82;58.71
19259;BME280;9763;48.780;9.212;2023-04-21T02:33:30;97992.38;;;8.79;58.52
19259;BME280;9763;48.780;9.212;2023-04-21T02:36:54;97990.78;;;8.76;58.71
19259;BME280;9763;48.780;9.212;2023-04-21T02:40:18;97998.78;;;8.73;58.60
19259;BME280;9763;48.780;9.212;2023-04-21T02:43:42;98008.53;;;8.70;58.47
19259;BME280;9763;48.780;9.212;2023-04-21T02:47:07;98011.44;;;8.65;58.64
19259;BME280;9763;48.780;9.212;2023-04-21T02:50:31;98011.00;;;8.58;58.46
19259;BME280;9763;48.780;9.212;2023-04-21T02:53:55;98009.81;;;8.50;58.66
19259;BME280;9763;48.780;9.212;2023-04-21T02:57:19;98013.53;;;8.46;58.60
19259;BME280;9763;48.780;9.212;2023-04-21T03:00:43;98013.00;;;8.41;58.91
19259;BME280;9763;48.780;9.212;2023-04-21T03:04:08;98005.38;;;8.38;58.64
19259;BME280;9763;48.780;9.212;2023-04-21T03:07:32;98010.50;;;8.39;59.24
19259;BME280;9763;48.780;9.212;2023-04-21T03:10:56;97999.25;;;8.39;58.94
19259;BME280;9763;48.780;9.212;2023-04-21T03:14:20;98002.59;;;8.41;58.65
19259;BME280;9763;48.780;9.212;2023-04-21T03:17:44;97995.44;;;8.44;58.98
19259;BME280;9763;48.780;9.212;2023-04-21T03:21:09;97985.66;;;8.48;58.80
19259;BME280;9763;48.780;9.212;2023-04-21T03:24:33;97985.47;;;8.51;58.99
19259;BME280;9763;48.780;9.212;2023-04-21T03:27:57;97986.31;;;8.51;58.75
19259;BME280;9763;48.780;9.212;2023-04-21T03:31:21;97989.66;;;8.53;58.91
19259;BME280;9763;48.780;9.212;2023-04-21T03:34:44;97989.75;;;8.52;58.48
19259;BME280;9763;48.780;9.212;2023-04-21T03:38:10;97987.81;;;8.55;58.73
19259;BME280;9763;48.780;9.212;2023-04-21T03:41:34;97986.88;;;8.56;58.91
19259;BME280;9763;48.780;9.212;2023-04-21T03:45:01;97978.00;;;8.59;58.95
19259;BME280;9763;48.780;9.212;2023-04-21T03:48:28;97981.25;;;8.62;58.71
19259;BME280;9763;48.780;9.212;2023-04-21T03:51:53;97992.41;;;8.64;58.67
19259;BME280;9763;48.780;9.212;2023-04-21T03:55:18;97993.16;;;8.66;58.78
19259;BME280;9763;48.780;9.212;2023-04-21T03:58:42;97992.94;;;8.70;58.70
19259;BME280;9763;48.780;9.212;2023-04-21T04:02:06;97996.28;;;8.72;58.70
19259;BME280;9763;48.780;9.212;2023-04-21T04:05:30;97999.53;;;8.75;58.62
19259;BME280;9763;48.780;9.212;2023-04-21T04:08:53;97996.81;;;8.77;58.84
19259;BME280;9763;48.780;9.212;2023-04-21T04:12:19;97997.56;;;8.79;58.78
19259;BME280;9763;48.780;9.212;2023-04-21T04:15:43;97998.31;;;8.81;59.02
19259;BME280;9763;48.780;9.212;2023-04-21T04:19:07;97995.47;;;8.84;58.91
19259;BME280;9763;48.780;9.212;2023-04-21T04:22:31;97997.91;;;8.87;58.86
19259;BME280;9763;48.780;9.212;2023-04-21T04:25:55;97995.28;;;8.87;58.85
19259;BME280;9763;48.780;9.212;2023-04-21T04:29:20;97998.81;;;8.86;58.84
19259;BME280;9763;48.780;9.212;2023-04-21T04:32:44;98007.56;;;8.85;58.73
19259;BME280;9763;48.780;9.212;2023-04-21T04:36:08;97999.84;;;8.83;58.83
19259;BME280;9763;48.780;9.212;2023-04-21T04:39:33;97995.56;;;8.82;58.91
19259;BME280;9763;48.780;9.212;2023-04-21T04:42:58;97995.56;;;8.82;59.19
19259;BME280;9763;48.780;9.212;2023-04-21T04:46:24;97999.84;;;8.83;59.25
19259;BME280;9763;48.780;9.212;2023-04-21T04:49:50;97997.06;;;8.86;59.10
19259;BME280;9763;48.780;9.212;2023-04-21T04:53:13;97998.53;;;8.90;59.34
19259;BME280;9763;48.780;9.212;2023-04-21T04:56:37;98002.41;;;8.97;59.15
19259;BME280;9763;48.780;9.212;2023-04-21T05:00:02;98008.75;;;9.06;59.12
19259;BME280;9763;48.780;9.212;2023-04-21T05:03:28;98011.81;;;9.13;59.23
19259;BME280;9763;48.780;9.212;2023-04-21T05:06:52;98018.28;;;9.20;59.10
19259;BME280;9763;48.780;9.212;2023-04-21T05:10:15;98020.91;;;9.32;59.28
19259;BME280;9763;48.780;9.212;2023-04-21T05:13:39;98021.75;;;9.46;59.62
19259;BME280;9763;48.780;9.212;2023-04-21T05:17:03;98037.41;;;9.58;59.58
19259;BME280;9763;48.780;9.212;2023-04-21T05:20:28;98027.53;;;9.63;59.39
19259;BME280;9763;48.780;9.212;2023-04-21T05:23:52;98029.19;;;9.64;59.40
19259;BME280;9763;48.780;9.212;2023-04-21T05:27:16;98036.19;;;9.64;59.53
19259;BME280;9763;48.780;9.212;2023-04-21T05:30:40;98037.13;;;9.63;59.69
19259;BME280;9763;48.780;9.212;2023-04-21T05:34:04;98030.03;;;9.65;59.48
19259;BME280;9763;48.780;9.212;2023-04-21T05:37:28;98037.84;;;9.65;59.34
19259;BME280;9763;48.780;9.212;2023-04-21T05:40:53;98044.19;;;9.61;59.42
19259;BME280;9763;48.780;9.212;2023-04-21T05:44:17;98044.31;;;9.72;59.21
19259;BME280;9763;48.780;9.212;2023-04-21T05:47:42;98043.69;;;9.81;59.20
19259;BME280;9763;48.780;9.212;2023-04-21T05:51:09;98036.41;;;9.86;59.51
19259;BME280;9763;48.780;9.212;2023-04-21T05:54:34;98037.03;;;9.90;59.16
19259;BME280;9763;48.780;9.212;2023-04-21T05:57:58;98036.78;;;9.93;59.35
19259;BME280;9763;48.780;9.212;2023-04-21T06:01:22;98030.97;;;10.02;59.03
19259;BME280;9763;48.780;9.212;2023-04-21T06:04:45;98027.22;;;10.19;59.34
19259;BME280;9763;48.780;9.212;2023-04-21T06:08:10;98022.59;;;10.35;58.88
19259;BME280;9763;48.780;9.212;2023-04-21T06:11:34;98016.41;;;10.49;59.00
19259;BME280;9763;48.780;9.212;2023-04-21T06:14:58;98004.88;;;10.64;58.55
19259;BME280;9763;48.780;9.212;2023-04-21T06:18:25;98005.22;;;10.83;58.71
19259;BME280;9763;48.780;9.212;2023-04-21T06:21:49;98003.53;;;11.06;58.83
19259;BME280;9763;48.780;9.212;2023-04-21T06:25:13;98018.28;;;11.42;59.06
19259;BME280;9763;48.780;9.212;2023-04-21T06:28:38;98024.09;;;11.80;58.94
19259;BME280;9763;48.780;9.212;2023-04-21T06:32:02;98008.88;;;12.30;59.02
19259;BME280;9763;48.780;9.212;2023-04-21T06:35:26;98001.06;;;13.05;59.26
19259;BME280;9763;48.780;9.212;2023-04-21T06:38:50;98005.00;;;14.45;59.99
19259;BME280;9763;48.780;9.212;2023-04-21T06:42:14;98022.94;;;15.19;58.53
19259;BME280;9763;48.780;9.212;2023-04-21T06:45:40;98016.16;;;15.35;58.33
19259;BME280;9763;48.780;9.212;2023-04-21T06:49:04;98005.63;;;15.35;57.49
19259;BME280;9763;48.780;9.212;2023-04-21T06:52:28;98008.53;;;15.23;57.14
19259;BME280;9763;48.780;9.212;2023-04-21T06:55:52;98010.91;;;15.16;57.54
19259;BME280;9763;48.780;9.212;2023-04-21T06:59:16;98007.31;;;15.07;57.14
19259;BME280;9763;48.780;9.212;2023-04-21T07:02:41;98001.63;;;14.93;57.27
19259;BME280;9763;48.780;9.212;2023-04-21T07:06:05;98004.94;;;14.85;57.18
19259;BME280;9763;48.780;9.212;2023-04-21T07:09:29;98007.84;;;14.82;57.05
19259;BME280;9763;48.780;9.212;2023-04-21T07:12:55;97999.41;;;14.88;56.33
19259;BME280;9763;48.780;9.212;2023-04-21T07:16:19;98002.03;;;14.88;56.87
19259;BME280;9763;48.780;9.212;2023-04-21T07:19:44;97996.94;;;14.96;56.56
19259;BME280;9763;48.780;9.212;2023-04-21T07:23:08;97990.28;;;15.31;56.58
19259;BME280;9763;48.780;9.212;2023-04-21T07:26:32;97993.25;;;15.84;56.53
19259;BME280;9763;48.780;9.212;2023-04-21T07:29:56;97984.75;;;16.37;55.94
19259;BME280;9763;48.780;9.212;2023-04-21T07:33:20;97973.56;;;16.80;55.60
19259;BME280;9763;48.780;9.212;2023-04-21T07:36:45;97975.16;;;17.08;55.80
19259;BME280;9763;48.780;9.212;2023-04-21T07:40:09;97973.50;;;17.25;54.97
19259;BME280;9763;48.780;9.212;2023-04-21T07:43:33;97971.56;;;17.71;55.30
19259;BME280;9763;48.780;9.212;2023-04-21T07:46:57;97966.97;;;18.07;54.65
19259;BME280;9763;48.780;9.212;2023-04-21T07:50:21;97970.44;;;18.49;54.75
19259;BME280;9763;48.780;9.212;2023-04-21T07:53:46;97963.84;;;19.12;54.27
19259;BME280;9763;48.780;9.212;2023-04-21T07:57:10;97969.47;;;19.57;53.96
19259;BME280;9763;48.780;9.212;2023-04-21T08:00:34;97960.16;;;19.86;52.70
19259;BME280;9763;48.780;9.212;2023-04-21T08:03:59;97964.97;;;20.45;53.54
19259;BME280;9763;48.780;9.212;2023-04-21T08:07:23;97952.69;;;21.67;53.12
19259;BME280;9763;48.780;9.212;2023-04-21T08:10:48;97951.69;;;23.56;52.24
19259;BME280;9763;48.780;9.212;2023-04-21T08:14:13;97950.06;;;25.32;50.03
19259;BME280;9763;48.780;9.212;2023-04-21T08:17:37;97941.53;;;26.85;48.81
19259;BME280;9763;48.780;9.212;2023-04-21T08:21:01;97944.16;;;28.41;46.91
19259;BME280;9763;48.780;9.212;2023-04-21T08:24:25;97930.38;;;29.81;45.58
19259;BME280;9763;48.780;9.212;2023-04-21T08:27:50;97936.00;;;30.94;43.73
19259;BME280;9763;48.780;9.212;2023-04-21T08:31:14;97934.56;;;31.65;42.70
19259;BME280;9763;48.780;9.212;2023-04-21T08:34:38;97925.31;;;30.71;42.48
19259;BME280;9763;48.780;9.212;2023-04-21T08:38:02;97924.28;;;29.62;43.20
19259;BME280;9763;48.780;9.212;2023-04-21T08:41:26;97926.16;;;29.85;43.53
19259;BME280;9763;48.780;9.212;2023-04-21T08:44:51;97917.97;;;30.66;42.26
19259;BME280;9763;48.780;9.212;2023-04-21T08:48:17;97919.78;;;31.51;41.24
19259;BME280;9763;48.780;9.212;2023-04-21T08:51:43;97925.13;;;32.01;40.82
19259;BME280;9763;48.780;9.212;2023-04-21T08:55:10;97918.94;;;32.66;39.74
19259;BME280;9763;48.780;9.212;2023-04-21T08:58:34;97913.63;;;32.98;39.32
19259;BME280;9763;48.780;9.212;2023-04-21T09:02:12;97905.41;;;33.47;38.10
19259;BME280;9763;48.780;9.212;2023-04-21T09:05:37;97916.31;;;33.89;37.44
19259;BME280;9763;48.780;9.212;2023-04-21T09:09:04;97911.66;;;34.31;36.67
19259;BME280;9763;48.780;9.212;2023-04-21T09:12:29;97907.69;;;34.54;36.04
19259;BME280;9763;48.780;9.212;2023-04-21T09:15:53;97908.88;;;34.79;35.41
19259;BME280;9763;48.780;9.212;2023-04-21T09:19:18;97899.72;;;35.00;34.86
19259;BME280;9763;48.780;9.212;2023-04-21T09:22:43;97890.50;;;35.26;34.16
19259;BME280;9763;48.780;9.212;2023-04-21T09:26:07;97887.53;;;35.48;33.72
19259;BME280;9763;48.780;9.212;2023-04-21T09:29:31;97885.88;;;35.57;33.09
19259;BME280;9763;48.780;9.212;2023-04-21T09:32:58;97892.41;;;35.82;32.46
19259;BME280;9763;48.780;9.212;2023-04-21T09:36:25;97877.47;;;35.38;32.24
19259;BME280;9763;48.780;9.212;2023-04-21T09:39:49;97884.50;;;35.04;32.67
19259;BME280;9763;48.780;9.212;2023-04-21T09:43:26;97882.63;;;35.60;31.94
19259;BME280;9763;48.780;9.212;2023-04-21T09:46:51;97893.16;;;36.07;31.03
19259;BME280;9763;48.780;9.212;2023-04-21T09:50:19;97894.13;;;36.42;30.60
19259;BME280;9763;48.780;9.212;2023-04-21T09:54:14;97884.13;;;36.27;29.98
19259;BME280;9763;48.780;9.212;2023-04-21T09:57:42;97887.94;;;36.11;29.69
19259;BME280;9763;48.780;9.212;2023-04-21T10:01:07;97869.19;;;36.20;29.68
19259;BME280;9763;48.780;9.212;2023-04-21T10:04:33;97863.38;;;36.47;29.55
19259;BME280;9763;48.780;9.212;2023-04-21T10:07:59;97851.53;;;36.71;28.92
19259;BME280;9763;48.780;9.212;2023-04-21T10:11:24;97844.78;;;37.03;28.86
19259;BME280;9763;48.780;9.212;2023-04-21T10:14:50;97841.25;;;37.36;28.43
19259;BME280;9763;48.780;9.212;2023-04-21T10:18:16;97838.50;;;37.41;27.84
19259;BME280;9763;48.780;9.212;2023-04-21T10:21:40;97837.19;;;37.34;28.24
19259;BME280;9763;48.780;9.212;2023-04-21T10:25:08;97836.50;;;37.52;27.99
19259;BME280;9763;48.780;9.212;2023-04-21T10:28:45;97847.63;;;37.56;26.81
19259;BME280;9763;48.780;9.212;2023-04-21T10:32:09;97841.13;;;37.52;27.08
19259;BME280;9763;48.780;9.212;2023-04-21T10:35:57;97836.13;;;37.88;26.99
19259;BME280;9763;48.780;9.212;2023-04-21T10:39:26;97830.59;;;38.16;26.38
19259;BME280;9763;48.780;9.212;2023-04-21T10:42:50;97826.16;;;38.26;26.19
19259;BME280;9763;48.780;9.212;2023-04-21T10:46:35;97827.31;;;38.19;25.96
19259;BME280;9763;48.780;9.212;2023-04-21T10:50:10;97833.53;;;38.44;26.05
19259;BME280;9763;48.780;9.212;2023-04-21T10:53:42;97825.44;;;38.58;26.11
19259;BME280;9763;48.780;9.212;2023-04-21T10:57:08;97819.69;;;38.78;25.98
19259;BME280;9763;48.780;9.212;2023-04-21T11:00:32;97818.22;;;38.67;25.87
19259;BME280;9763;48.780;9.212;2023-04-21T11:03:57;97825.28;;;38.68;25.78
19259;BME280;9763;48.780;9.212;2023-04-21T11:07:23;97819.78;;;38.73;25.78
19259;BME280;9763;48.780;9.212;2023-04-21T11:10:52;97812.97;;;38.70;25.15
19259;BME280;9763;48.780;9.212;2023-04-21T11:14:16;97822.63;;;38.81;25.02
19259;BME280;9763;48.780;9.212;2023-04-21T11:17:43;97818.91;;;38.91;24.44
19259;BME280;9763;48.780;9.212;2023-04-21T11:21:12;97811.03;;;38.89;24.55
19259;BME280;9763;48.780;9.212;2023-04-21T11:24:43;97809.22;;;38.85;24.33
19259;BME280;9763;48.780;9.212;2023-04-21T11:28:07;97798.59;;;38.83;24.50
19259;BME280;9763;48.780;9.212;2023-04-21T11:31:31;97791.09;;;38.75;24.05
19259;BME280;9763;48.780;9.212;2023-04-21T11:34:56;97797.84;;;38.78;24.37
19259;BME280;9763;48.780;9.212;2023-04-21T11:38:23;97800.91;;;38.76;23.97
19259;BME280;9763;48.780;9.212;2023-04-21T11:41:48;97799.41;;;38.46;24.65
19259;BME280;9763;48.780;9.212;2023-04-21T11:45:16;97794.41;;;38.53;24.30
19259;BME280;9763;48.780;9.212;2023-04-21T11:48:44;97788.31;;;38.19;23.92
19259;BME280;9763;48.780;9.212;2023-04-21T11:52:08;97783.50;;;37.39;24.79
19259;BME280;9763;48.780;9.212;2023-04-21T11:55:33;97773.69;;;37.38;24.64
19259;BME280;9763;48.780;9.212;2023-04-21T11:58:58;97772.53;;;37.44;24.78
19259;BME280;9763;48.780;9.212;2023-04-21T12:02:26;97774.34;;;37.30;24.53
19259;BME280;9763;48.780;9.212;2023-04-21T12:05:55;97775.09;;;37.36;24.34
19259;BME280;9763;48.780;9.212;2023-04-21T12:09:20;97775.69;;;36.99;24.31
19259;BME280;9763;48.780;9.212;2023-04-21T12:12:46;97771.59;;;35.38;25.89
19259;BME280;9763;48.780;9.212;2023-04-21T12:16:12;97771.19;;;34.18;26.80
19259;BME280;9763;48.780;9.212;2023-04-21T12:19:37;97769.22;;;33.88;26.85
19259;BME280;9763;48.780;9.212;2023-04-21T12:23:02;97762.25;;;34.18;26.69
19259;BME280;9763;48.780;9.212;2023-04-21T12:26:26;97764.78;;;34.40;26.61
19259;BME280;9763;48.780;9.212;2023-04-21T12:29:51;97759.31;;;34.24;27.00
19259;BME280;9763;48.780;9.212;2023-04-21T12:33:15;97748.66;;;33.97;26.72
19259;BME280;9763;48.780;9.212;2023-04-21T12:36:39;97749.09;;;33.69;26.94
19259;BME280;9763;48.780;9.212;2023-04-21T12:40:04;97747.59;;;33.41;27.56
19259;BME280;9763;48.780;9.212;2023-04-21T12:43:29;97733.06;;;33.15;27.58
19259;BME280;9763;48.780;9.212;2023-04-21T12:46:55;97736.09;;;32.82;28.16
19259;BME280;9763;48.780;9.212;2023-04-21T12:50:19;97733.16;;;32.56;28.50
19259;BME280;9763;48.780;9.212;2023-04-21T12:53:43;97723.25;;;32.40;28.45
19259;BME280;9763;48.780;9.212;2023-04-21T12:57:07;97716.69;;;32.31;28.79
19259;BME280;9763;48.780;9.212;2023-04-21T13:00:31;97722.41;;;32.35;28.75
19259;BME280;9763;48.780;9.212;2023-04-21T13:03:59;97717.28;;;32.38;28.24
19259;BME280;9763;48.780;9.212;2023-04-21T13:07:23;97713.53;;;32.39;28.20
19259;BME280;9763;48.780;9.212;2023-04-21T13:10:48;97714.41;;;32.45;28.36
19259;BME280;9763;48.780;9.212;2023-04-21T13:14:12;97720.06;;;32.43;28.42
19259;BME280;9763;48.780;9.212;2023-04-21T13:17:37;97710.31;;;32.42;27.94
19259;BME280;9763;48.780;9.212;2023-04-21T13:21:02;97711.22;;;32.53;27.87
19259;BME280;9763;48.780;9.212;2023-04-21T13:24:26;97711.91;;;32.70;27.56
19259;BME280;9763;48.780;9.212;2023-04-21T13:27:50;97698.81;;;32.89;26.87
19259;BME280;9763;48.780;9.212;2023-04-21T13:31:15;97691.41;;;33.16;26.60
19259;BME280;9763;48.780;9.212;2023-04-21T13:34:39;97686.59;;;33.23;25.92
19259;BME280;9763;48.780;9.212;2023-04-21T13:38:04;97687.38;;;33.19;26.12
19259;BME280;9763;48.780;9.212;2023-04-21T13:41:28;97687.84;;;33.06;26.00
19259;BME280;9763;48.780;9.212;2023-04-21T13:44:52;97685.06;;;32.96;26.21
19259;BME280;9763;48.780;9.212;2023-04-21T13:48:17;97687.22;;;32.94;26.12
19259;BME280;9763;48.780;9.212;2023-04-21T13:51:40;97681.56;;;32.95;26.04
19259;BME280;9763;48.780;9.212;2023-04-21T13:55:06;97684.53;;;32.30;26.65
19259;BME280;9763;48.780;9.212;2023-04-21T13:58:30;97679.88;;;31.71;27.17
19259;BME280;9763;48.780;9.212;2023-04-21T14:01:53;97681.81;;;30.77;28.49
19259;BME280;9763;48.780;9.212;2023-04-21T14:05:17;97677.25;;;29.35;29.32
19259;BME280;9763;48.780;9.212;2023-04-21T14:08:42;97673.00;;;28.11;31.37
19259;BME280;9763;48.780;9.212;2023-04-21T14:12:07;97667.41;;;27.16;32.38
19259;BME280;9763;48.780;9.212;2023-04-21T14:15:31;97669.50;;;26.46;33.33
19259;BME280;9763;48.780;9.212;2023-04-21T14:18:55;97666.72;;;25.97;33.90
19259;BME280;9763;48.780;9.212;2023-04-21T14:22:19;97656.88;;;25.59;34.02
19259;BME280;9763;48.780;9.212;2023-04-21T14:25:43;97651.03;;;25.24;34.65
19259;BME280;9763;48.780;9.212;2023-04-21T14:29:08;97638.56;;;24.92;35.13
19259;BME280;9763;48.780;9.212;2023-04-21T14:32:32;97636.16;;;24.64;35.12
19259;BME280;9763;48.780;9.212;2023-04-21T14:35:56;97630.88;;;24.37;35.22
19259;BME280;9763;48.780;9.212;2023-04-21T14:39:20;97630.00;;;24.17;35.34
19259;BME280;9763;48.780;9.212;2023-04-21T14:42:44;97611.56;;;23.89;35.49
19259;BME280;9763;48.780;9.212;2023-04-21T14:46:09;97632.47;;;23.86;35.56
19259;BME280;9763;48.780;9.212;2023-04-21T14:49:33;97625.66;;;23.70;35.39
19259;BME280;9763;48.780;9.212;2023-04-21T14:52:57;97640.59;;;23.58;35.79
19259;BME280;9763;48.780;9.212;2023-04-21T14:56:21;97643.81;;;23.47;35.51
19259;BME280;9763;48.780;9.212;2023-04-21T14:59:45;97642.09;;;23.32;35.41
19259;BME280;9763;48.780;9.212;2023-04-21T15:03:10;97635.50;;;23.22;35.84
19259;BME280;9763;48.780;9.212;2023-04-21T15:06:34;97631.19;;;23.14;36.04
19259;BME280;9763;48.780;9.212;2023-04-21T15:09:58;97619.09;;;23.12;35.88
19259;BME280;9763;48.780;9.212;2023-04-21T15:13:23;97621.13;;;23.10;35.68
19259;BME280;9763;48.780;9.212;2023-04-21T15:16:47;97614.97;;;23.09;36.29
19259;BME280;9763;48.780;9.212;2023-04-21T15:20:12;97611.09;;;23.12;36.53
19259;BME280;9763;48.780;9.212;2023-04-21T15:23:36;97614.00;;;23.17;36.05
19259;BME280;9763;48.780;9.212;2023-04-21T15:27:00;97615.66;;;23.18;35.91
19259;BME280;9763;48.780;9.212;2023-04-21T15:30:24;97620.72;;;23.13;36.49
19259;BME280;9763;48.780;9.212;2023-04-21T15:33:48;97618.44;;;23.03;36.27
19259;BME280;9763;48.780;9.212;2023-04-21T15:37:13;97621.47;;;22.93;36.37
19259;BME280;9763;48.780;9.212;2023-04-21T15:40:39;97611.78;;;22.86;36.45
19259;BME280;9763;48.780;9.212;2023-04-21T15:44:22;97615.88;;;22.82;36.96
19259;BME280;9763;48.780;9.212;2023-04-21T15:47:46;97620.56;;;22.80;37.01
19259;BME280;9763;48.780;9.212;2023-04-21T15:51:10;97613.81;;;22.77;36.80
19259;BME280;9763;48.780;9.212;2023-04-21T15:54:36;97606.00;;;22.76;37.12
19259;BME280;9763;48.780;9.212;2023-04-21T15:58:01;97602.34;;;22.77;37.40
19259;BME280;9763;48.780;9.212;2023-04-21T16:01:25;97612.78;;;22.78;36.86
19259;BME280;9763;48.780;9.212;2023-04-21T16:04:49;97598.84;;;22.76;36.94
19259;BME280;9763;48.780;9.212;2023-04-21T16:08:13;97599.84;;;22.75;37.78
19259;BME280;9763;48.780;9.212;2023-04-21T16:11:38;97601.22;;;22.71;37.27
19259;BME280;9763;48.780;9.212;2023-04-21T16:15:03;97604.94;;;22.70;37.65
19259;BME280;9763;48.780;9.212;2023-04-21T16:18:45;97601.41;;;22.63;37.23
19259;BME280;9763;48.780;9.212;2023-04-21T16:22:09;97600.94;;;22.53;37.31
19259;BME280;9763;48.780;9.212;2023-04-21T16:25:33;97598.63;;;22.43;37.65
19259;BME280;9763;48.780;9.212;2023-04-21T16:28:58;97596.50;;;22.32;37.65
19259;BME280;9763;48.780;9.212;2023-04-21T16:32:23;97591.31;;;22.24;37.74
19259;BME280;9763;48.780;9.212;2023-04-21T16:35:47;97590.06;;;22.20;38.29
19259;BME280;9763;48.780;9.212;2023-04-21T16:39:13;97586.63;;;22.26;38.09
19259;BME280;9763;48.780;9.212;2023-04-21T16:42:37;97583.63;;;22.36;38.29
19259;BME280;9763;48.780;9.212;2023-04-21T16:46:02;97582.25;;;22.46;38.42
19259;BME280;9763;48.780;9.212;2023-04-21T16:49:26;97582.69;;;22.50;38.28
19259;BME280;9763;48.780;9.212;2023-04-21T16:52:51;97577.56;;;22.48;38.08
19259;BME280;9763;48.780;9.212;2023-04-21T16:56:16;97580.41;;;22.47;38.46
19259;BME280;9763;48.780;9.212;2023-04-21T16:59:41;97577.28;;;22.37;38.36
19259;BME280;9763;48.780;9.212;2023-04-21T17:03:07;97582.72;;;22.22;38.74
19259;BME280;9763;48.780;9.212;2023-04-21T17:06:31;97585.66;;;22.06;38.81
19259;BME280;9763;48.780;9.212;2023-04-21T17:09:55;97594.31;;;21.93;38.90
19259;BME280;9763;48.780;9.212;2023-04-21T17:13:19;97587.88;;;21.81;38.67
19259;BME280;9763;48.780;9.212;2023-04-21T17:16:43;97587.19;;;21.72;38.88
19259;BME280;9763;48.780;9.212;2023-04-21T17:20:11;97593.88;;;21.68;39.11
19259;BME280;9763;48.780;9.212;2023-04-21T17:23:35;97605.88;;;21.64;38.84
19259;BME280;9763;48.780;9.212;2023-04-21T17:26:59;97611.16;;;21.58;39.35
19259;BME280;9763;48.780;9.212;2023-04-21T17:30:23;97625.06;;;21.24;39.81
19259;BME280;9763;48.780;9.212;2023-04-21T17:33:46;97605.50;;;20.80;44.99
19259;BME280;9763;48.780;9.212;2023-04-21T17:37:11;97612.88;;;20.41;49.45
19259;BME280;9763;48.780;9.212;2023-04-21T17:40:35;97619.59;;;20.14;51.61
19259;BME280;9763;48.780;9.212;2023-04-21T17:43:59;97615.19;;;19.84;52.56
19259;BME280;9763;48.780;9.212;2023-04-21T17:47:24;97624.31;;;19.58;54.13
19259;BME280;9763;48.780;9.212;2023-04-21T17:50:48;97622.56;;;19.42;55.35
19259;BME280;9763;48.780;9.212;2023-04-21T17:54:13;97630.03;;;19.39;55.88
19259;BME280;9763;48.780;9.212;2023-04-21T17:57:37;97632.53;;;19.32;56.33
19259;BME280;9763;48.780;9.212;2023-04-21T18:01:01;97632.75;;;19.23;57.20
19259;BME280;9763;48.780;9.212;2023-04-21T18:04:25;97638.41;;;19.20;58.01
19259;BME280;9763;48.780;9.212;2023-04-21T18:07:51;97641.72;;;19.14;58.65
19259;BME280;9763;48.780;9.212;2023-04-21T18:11:16;97641.41;;;19.08;59.25
19259;BME280;9763;48.780;9.212;2023-04-21T18:14:40;97647.91;;;18.98;58.89
19259;BME280;9763;48.780;9.212;2023-04-21T18:18:04;97649.31;;;18.78;59.37
19259;BME280;9763;48.780;9.212;2023-04-21T18:21:28;97660.41;;;18.65;59.24
19259;BME280;9763;48.780;9.212;2023-04-21T18:24:53;97658.75;;;18.56;59.56
19259;BME280;9763;48.780;9.212;2023-04-21T18:28:19;97660.91;;;18.52;60.39